Bedwas, United Kingdom
Current Conditions -  °F | °C
As of 10:20 AM on Saturday 20 Dec 2014 (Local Time) from EGFF Reporting Station
Overcast Overcast  
Wind Chill:   Ceiling: 3400
Heat Index:   Visibility: 6mi
Dew Point:   Wind: 17mph
Humidity: 76%   Direction: 280°W
Pressure: 30.36"   Gusts: NA
Location:  51.59°N, 3.2°W
Report Text: EGFF 201020Z AUTO 28015KT 9999 OVC034 08/04 Q1028
Loading
Personal Weather Stations






























Interactive Weather Map New forecast layout! Learn more

10-Day Weather Forecast

Advertisements
Track Severe Weather on mobile